sensor_id;sensor_type;location;lat;lon;timestamp;temperature;humidity
14705;DHT22;7442;50.840;3.396;2022-08-02T00:02:21;27.10;50.80
14705;DHT22;7442;50.840;3.396;2022-08-02T00:05:09;27.10;50.90
14705;DHT22;7442;50.840;3.396;2022-08-02T00:07:55;27.10;50.80
14705;DHT22;7442;50.840;3.396;2022-08-02T00:10:41;27.10;50.80
14705;DHT22;7442;50.840;3.396;2022-08-02T00:13:28;27.10;50.80
14705;DHT22;7442;50.840;3.396;2022-08-02T00:16:14;27.20;50.70
14705;DHT22;7442;50.840;3.396;2022-08-02T00:19:00;27.20;50.60
14705;DHT22;7442;50.840;3.396;2022-08-02T00:21:47;27.20;50.70
14705;DHT22;7442;50.840;3.396;2022-08-02T00:24:33;27.20;50.60
14705;DHT22;7442;50.840;3.396;2022-08-02T00:27:20;27.30;50.60
14705;DHT22;7442;50.840;3.396;2022-08-02T00:30:07;27.20;50.60
14705;DHT22;7442;50.840;3.396;2022-08-02T00:32:53;27.20;50.60
14705;DHT22;7442;50.840;3.396;2022-08-02T00:35:39;27.20;50.60
14705;DHT22;7442;50.840;3.396;2022-08-02T00:38:25;27.10;50.70
14705;DHT22;7442;50.840;3.396;2022-08-02T00:41:15;27.10;50.70
14705;DHT22;7442;50.840;3.396;2022-08-02T00:44:00;27.10;50.70
14705;DHT22;7442;50.840;3.396;2022-08-02T00:46:54;27.20;50.70
14705;DHT22;7442;50.840;3.396;2022-08-02T00:49:40;27.20;50.70
14705;DHT22;7442;50.840;3.396;2022-08-02T00:52:26;27.10;50.70
14705;DHT22;7442;50.840;3.396;2022-08-02T00:55:12;27.20;50.70
14705;DHT22;7442;50.840;3.396;2022-08-02T00:57:58;27.20;50.70
14705;DHT22;7442;50.840;3.396;2022-08-02T01:00:44;27.20;50.60
14705;DHT22;7442;50.840;3.396;2022-08-02T01:03:31;27.20;50.50
14705;DHT22;7442;50.840;3.396;2022-08-02T01:06:17;27.20;50.50
14705;DHT22;7442;50.840;3.396;2022-08-02T01:09:04;27.20;50.50
14705;DHT22;7442;50.840;3.396;2022-08-02T01:11:58;27.20;50.60
14705;DHT22;7442;50.840;3.396;2022-08-02T01:14:47;27.10;50.70
14705;DHT22;7442;50.840;3.396;2022-08-02T01:17:37;27.10;50.80
14705;DHT22;7442;50.840;3.396;2022-08-02T01:26:54;27.00;50.90
14705;DHT22;7442;50.840;3.396;2022-08-02T01:29:43;27.00;50.90
14705;DHT22;7442;50.840;3.396;2022-08-02T01:32:39;27.10;50.90
14705;DHT22;7442;50.840;3.396;2022-08-02T01:35:31;27.10;50.90
14705;DHT22;7442;50.840;3.396;2022-08-02T01:38:27;27.10;50.80
14705;DHT22;7442;50.840;3.396;2022-08-02T01:41:18;27.10;50.80
14705;DHT22;7442;50.840;3.396;2022-08-02T01:44:03;27.10;50.80
14705;DHT22;7442;50.840;3.396;2022-08-02T01:46:51;27.10;50.80
14705;DHT22;7442;50.840;3.396;2022-08-02T01:49:44;27.10;51.50
14705;DHT22;7442;50.840;3.396;2022-08-02T01:52:34;27.10;50.70
14705;DHT22;7442;50.840;3.396;2022-08-02T01:55:50;27.00;50.80
14705;DHT22;7442;50.840;3.396;2022-08-02T01:58:39;27.10;50.90
14705;DHT22;7442;50.840;3.396;2022-08-02T02:01:35;27.10;50.80
14705;DHT22;7442;50.840;3.396;2022-08-02T02:04:22;27.10;51.40
14705;DHT22;7442;50.840;3.396;2022-08-02T02:07:12;27.10;50.80
14705;DHT22;7442;50.840;3.396;2022-08-02T02:10:02;27.00;50.70
14705;DHT22;7442;50.840;3.396;2022-08-02T02:12:49;27.10;50.80
14705;DHT22;7442;50.840;3.396;2022-08-02T02:15:42;27.00;50.80
14705;DHT22;7442;50.840;3.396;2022-08-02T02:18:29;27.10;50.80
14705;DHT22;7442;50.840;3.396;2022-08-02T02:21:17;27.10;50.90
14705;DHT22;7442;50.840;3.396;2022-08-02T02:24:04;27.00;50.70
14705;DHT22;7442;50.840;3.396;2022-08-02T02:26:50;27.00;50.90
14705;DHT22;7442;50.840;3.396;2022-08-02T02:29:38;26.90;50.90
14705;DHT22;7442;50.840;3.396;2022-08-02T02:32:27;26.90;51.10
14705;DHT22;7442;50.840;3.396;2022-08-02T02:35:15;26.90;51.10
14705;DHT22;7442;50.840;3.396;2022-08-02T02:38:05;26.90;51.30
14705;DHT22;7442;50.840;3.396;2022-08-02T02:40:52;26.80;51.10
14705;DHT22;7442;50.840;3.396;2022-08-02T02:43:40;26.90;51.10
14705;DHT22;7442;50.840;3.396;2022-08-02T02:46:31;26.80;51.00
14705;DHT22;7442;50.840;3.396;2022-08-02T02:49:20;26.80;51.20
14705;DHT22;7442;50.840;3.396;2022-08-02T02:52:07;26.80;51.20
14705;DHT22;7442;50.840;3.396;2022-08-02T02:54:55;26.70;51.30
14705;DHT22;7442;50.840;3.396;2022-08-02T02:57:42;26.70;51.40
14705;DHT22;7442;50.840;3.396;2022-08-02T03:00:29;26.60;51.50
14705;DHT22;7442;50.840;3.396;2022-08-02T03:03:34;26.70;51.60
14705;DHT22;7442;50.840;3.396;2022-08-02T03:06:20;26.70;51.50
14705;DHT22;7442;50.840;3.396;2022-08-02T03:09:07;26.70;51.40
14705;DHT22;7442;50.840;3.396;2022-08-02T03:11:54;26.70;51.40
14705;DHT22;7442;50.840;3.396;2022-08-02T03:14:42;26.70;51.50
14705;DHT22;7442;50.840;3.396;2022-08-02T03:17:40;26.70;51.40
14705;DHT22;7442;50.840;3.396;2022-08-02T03:20:28;26.70;51.40
14705;DHT22;7442;50.840;3.396;2022-08-02T03:23:15;26.70;51.50
14705;DHT22;7442;50.840;3.396;2022-08-02T03:26:01;26.70;51.40
14705;DHT22;7442;50.840;3.396;2022-08-02T03:28:48;26.70;51.40
14705;DHT22;7442;50.840;3.396;2022-08-02T03:31:35;26.80;51.30
14705;DHT22;7442;50.840;3.396;2022-08-02T03:34:23;26.80;51.30
14705;DHT22;7442;50.840;3.396;2022-08-02T03:37:16;26.80;51.20
14705;DHT22;7442;50.840;3.396;2022-08-02T03:40:04;26.80;51.30
14705;DHT22;7442;50.840;3.396;2022-08-02T03:42:53;26.80;51.30
14705;DHT22;7442;50.840;3.396;2022-08-02T03:45:42;26.80;51.20
14705;DHT22;7442;50.840;3.396;2022-08-02T03:48:30;26.80;51.20
14705;DHT22;7442;50.840;3.396;2022-08-02T03:51:18;26.80;51.20
14705;DHT22;7442;50.840;3.396;2022-08-02T03:54:05;26.80;51.10
14705;DHT22;7442;50.840;3.396;2022-08-02T03:56:52;26.80;51.10
14705;DHT22;7442;50.840;3.396;2022-08-02T03:59:43;26.80;51.10
14705;DHT22;7442;50.840;3.396;2022-08-02T04:02:29;26.80;51.20
14705;DHT22;7442;50.840;3.396;2022-08-02T04:05:17;26.80;51.30
14705;DHT22;7442;50.840;3.396;2022-08-02T04:08:04;26.70;51.40
14705;DHT22;7442;50.840;3.396;2022-08-02T04:10:51;26.70;51.40
14705;DHT22;7442;50.840;3.396;2022-08-02T04:14:00;26.70;51.50
14705;DHT22;7442;50.840;3.396;2022-08-02T04:16:53;26.70;51.40
14705;DHT22;7442;50.840;3.396;2022-08-02T04:19:42;26.70;51.40
14705;DHT22;7442;50.840;3.396;2022-08-02T04:22:36;26.70;51.40
14705;DHT22;7442;50.840;3.396;2022-08-02T04:25:23;26.70;51.50
14705;DHT22;7442;50.840;3.396;2022-08-02T04:28:10;26.60;51.60
14705;DHT22;7442;50.840;3.396;2022-08-02T04:30:58;26.50;51.60
14705;DHT22;7442;50.840;3.396;2022-08-02T04:33:45;26.50;51.70
14705;DHT22;7442;50.840;3.396;2022-08-02T04:36:32;26.50;51.80
14705;DHT22;7442;50.840;3.396;2022-08-02T04:39:18;26.50;51.80
14705;DHT22;7442;50.840;3.396;2022-08-02T04:42:05;26.50;51.80
14705;DHT22;7442;50.840;3.396;2022-08-02T04:44:53;26.50;51.70
14705;DHT22;7442;50.840;3.396;2022-08-02T04:47:39;26.50;51.80
14705;DHT22;7442;50.840;3.396;2022-08-02T04:50:26;26.50;51.90
14705;DHT22;7442;50.840;3.396;2022-08-02T04:53:14;26.50;52.00
14705;DHT22;7442;50.840;3.396;2022-08-02T04:56:01;26.40;52.00
14705;DHT22;7442;50.840;3.396;2022-08-02T04:58:47;26.40;52.00
14705;DHT22;7442;50.840;3.396;2022-08-02T05:01:34;26.50;51.90
14705;DHT22;7442;50.840;3.396;2022-08-02T05:04:21;26.50;51.80
14705;DHT22;7442;50.840;3.396;2022-08-02T05:07:07;26.50;51.80
14705;DHT22;7442;50.840;3.396;2022-08-02T05:09:54;26.50;51.80
14705;DHT22;7442;50.840;3.396;2022-08-02T05:12:40;26.50;51.70
14705;DHT22;7442;50.840;3.396;2022-08-02T05:15:33;26.50;51.80
14705;DHT22;7442;50.840;3.396;2022-08-02T05:18:19;26.50;51.70
14705;DHT22;7442;50.840;3.396;2022-08-02T05:21:06;26.60;51.60
14705;DHT22;7442;50.840;3.396;2022-08-02T05:23:52;26.50;51.80
14705;DHT22;7442;50.840;3.396;2022-08-02T05:26:39;26.50;52.10
14705;DHT22;7442;50.840;3.396;2022-08-02T05:29:26;26.60;52.10
14705;DHT22;7442;50.840;3.396;2022-08-02T05:32:12;26.70;52.30
14705;DHT22;7442;50.840;3.396;2022-08-02T05:35:02;26.70;52.10
14705;DHT22;7442;50.840;3.396;2022-08-02T05:37:56;26.70;52.20
14705;DHT22;7442;50.840;3.396;2022-08-02T05:40:42;26.70;52.10
14705;DHT22;7442;50.840;3.396;2022-08-02T05:43:29;26.70;52.10
14705;DHT22;7442;50.840;3.396;2022-08-02T05:46:15;26.70;52.20
14705;DHT22;7442;50.840;3.396;2022-08-02T05:49:02;26.70;52.40
14705;DHT22;7442;50.840;3.396;2022-08-02T05:55:08;26.60;52.60
14705;DHT22;7442;50.840;3.396;2022-08-02T06:00:49;26.70;52.60
14705;DHT22;7442;50.840;3.396;2022-08-02T06:03:38;26.70;52.60
14705;DHT22;7442;50.840;3.396;2022-08-02T06:06:28;26.70;52.50
14705;DHT22;7442;50.840;3.396;2022-08-02T06:09:16;26.70;52.40
14705;DHT22;7442;50.840;3.396;2022-08-02T06:12:04;26.70;52.50
14705;DHT22;7442;50.840;3.396;2022-08-02T06:14:54;26.70;52.50
14705;DHT22;7442;50.840;3.396;2022-08-02T06:17:42;26.80;52.40
14705;DHT22;7442;50.840;3.396;2022-08-02T06:20:30;26.80;52.30
14705;DHT22;7442;50.840;3.396;2022-08-02T06:23:23;26.80;52.10
14705;DHT22;7442;50.840;3.396;2022-08-02T06:26:12;26.80;52.00
14705;DHT22;7442;50.840;3.396;2022-08-02T06:29:00;26.90;52.00
14705;DHT22;7442;50.840;3.396;2022-08-02T06:31:47;26.80;52.20
14705;DHT22;7442;50.840;3.396;2022-08-02T06:34:39;26.80;52.10
14705;DHT22;7442;50.840;3.396;2022-08-02T06:37:35;26.90;52.10
14705;DHT22;7442;50.840;3.396;2022-08-02T06:40:44;26.90;52.00
14705;DHT22;7442;50.840;3.396;2022-08-02T06:46:20;26.90;52.10
14705;DHT22;7442;50.840;3.396;2022-08-02T06:49:07;26.90;51.70
14705;DHT22;7442;50.840;3.396;2022-08-02T06:51:54;27.00;51.90
14705;DHT22;7442;50.840;3.396;2022-08-02T06:54:41;27.00;51.90
14705;DHT22;7442;50.840;3.396;2022-08-02T06:57:28;27.10;51.90
14705;DHT22;7442;50.840;3.396;2022-08-02T07:00:15;27.10;51.80
14705;DHT22;7442;50.840;3.396;2022-08-02T07:03:04;27.10;51.70
14705;DHT22;7442;50.840;3.396;2022-08-02T07:05:51;27.10;51.70
14705;DHT22;7442;50.840;3.396;2022-08-02T07:08:38;27.20;51.70
14705;DHT22;7442;50.840;3.396;2022-08-02T07:11:24;27.20;51.60
14705;DHT22;7442;50.840;3.396;2022-08-02T07:14:11;27.20;51.40
14705;DHT22;7442;50.840;3.396;2022-08-02T07:16:57;27.30;51.40
14705;DHT22;7442;50.840;3.396;2022-08-02T07:19:44;27.30;51.30
14705;DHT22;7442;50.840;3.396;2022-08-02T07:22:30;27.40;51.20
14705;DHT22;7442;50.840;3.396;2022-08-02T07:25:16;27.40;51.20
14705;DHT22;7442;50.840;3.396;2022-08-02T07:28:04;27.40;51.10
14705;DHT22;7442;50.840;3.396;2022-08-02T07:30:50;27.50;51.20
14705;DHT22;7442;50.840;3.396;2022-08-02T07:33:37;27.40;51.20
14705;DHT22;7442;50.840;3.396;2022-08-02T07:36:23;27.60;51.00
14705;DHT22;7442;50.840;3.396;2022-08-02T07:39:09;27.70;50.60
14705;DHT22;7442;50.840;3.396;2022-08-02T07:41:56;27.80;50.60
14705;DHT22;7442;50.840;3.396;2022-08-02T07:44:42;27.80;50.50
14705;DHT22;7442;50.840;3.396;2022-08-02T07:47:29;27.80;50.40
14705;DHT22;7442;50.840;3.396;2022-08-02T07:50:17;27.90;50.40
14705;DHT22;7442;50.840;3.396;2022-08-02T07:53:04;27.80;50.40
14705;DHT22;7442;50.840;3.396;2022-08-02T07:55:51;27.80;50.60
14705;DHT22;7442;50.840;3.396;2022-08-02T07:58:37;27.80;50.40
14705;DHT22;7442;50.840;3.396;2022-08-02T08:01:23;27.90;50.30
14705;DHT22;7442;50.840;3.396;2022-08-02T08:04:10;27.90;50.20
14705;DHT22;7442;50.840;3.396;2022-08-02T08:06:56;27.90;50.20
14705;DHT22;7442;50.840;3.396;2022-08-02T08:09:45;27.90;50.20
14705;DHT22;7442;50.840;3.396;2022-08-02T08:12:33;28.00;50.20
14705;DHT22;7442;50.840;3.396;2022-08-02T08:15:20;28.00;50.10
14705;DHT22;7442;50.840;3.396;2022-08-02T08:18:07;28.00;50.00
14705;DHT22;7442;50.840;3.396;2022-08-02T08:20:53;28.10;49.90
14705;DHT22;7442;50.840;3.396;2022-08-02T08:23:40;28.10;49.70
14705;DHT22;7442;50.840;3.396;2022-08-02T08:26:26;28.10;49.70
14705;DHT22;7442;50.840;3.396;2022-08-02T08:29:26;28.10;49.70
14705;DHT22;7442;50.840;3.396;2022-08-02T08:32:13;28.20;49.80
14705;DHT22;7442;50.840;3.396;2022-08-02T08:34:59;28.20;49.70
14705;DHT22;7442;50.840;3.396;2022-08-02T08:37:49;28.20;49.80
14705;DHT22;7442;50.840;3.396;2022-08-02T08:40:35;28.20;49.70
14705;DHT22;7442;50.840;3.396;2022-08-02T08:43:21;28.30;49.70
14705;DHT22;7442;50.840;3.396;2022-08-02T08:46:25;28.20;49.60
14705;DHT22;7442;50.840;3.396;2022-08-02T08:52:05;28.20;49.60
14705;DHT22;7442;50.840;3.396;2022-08-02T08:54:52;28.30;49.60
14705;DHT22;7442;50.840;3.396;2022-08-02T08:57:41;28.20;49.70
14705;DHT22;7442;50.840;3.396;2022-08-02T09:00:30;28.30;49.60
14705;DHT22;7442;50.840;3.396;2022-08-02T09:03:19;28.40;49.50
14705;DHT22;7442;50.840;3.396;2022-08-02T09:06:05;28.40;49.60
14705;DHT22;7442;50.840;3.396;2022-08-02T09:08:51;28.50;49.30
14705;DHT22;7442;50.840;3.396;2022-08-02T09:11:38;28.50;49.00
14705;DHT22;7442;50.840;3.396;2022-08-02T09:14:27;28.60;49.00
14705;DHT22;7442;50.840;3.396;2022-08-02T09:17:14;28.60;48.80
14705;DHT22;7442;50.840;3.396;2022-08-02T09:20:05;28.60;48.90
14705;DHT22;7442;50.840;3.396;2022-08-02T09:23:09;28.60;48.80
14705;DHT22;7442;50.840;3.396;2022-08-02T09:26:04;28.60;48.90
14705;DHT22;7442;50.840;3.396;2022-08-02T09:28:59;28.60;48.70
14705;DHT22;7442;50.840;3.396;2022-08-02T09:31:41;28.60;48.80
14705;DHT22;7442;50.840;3.396;2022-08-02T09:34:48;28.60;48.90
14705;DHT22;7442;50.840;3.396;2022-08-02T09:37:34;28.60;48.80
14705;DHT22;7442;50.840;3.396;2022-08-02T09:40:33;28.60;48.80
14705;DHT22;7442;50.840;3.396;2022-08-02T09:43:10;28.70;48.90
14705;DHT22;7442;50.840;3.396;2022-08-02T09:45:57;28.70;48.90
14705;DHT22;7442;50.840;3.396;2022-08-02T09:48:47;28.70;48.90
14705;DHT22;7442;50.840;3.396;2022-08-02T09:51:38;28.70;48.60
14705;DHT22;7442;50.840;3.396;2022-08-02T09:54:26;28.70;48.30
14705;DHT22;7442;50.840;3.396;2022-08-02T09:57:20;28.60;48.50
14705;DHT22;7442;50.840;3.396;2022-08-02T10:00:06;28.60;48.60
14705;DHT22;7442;50.840;3.396;2022-08-02T10:03:09;28.70;48.50
14705;DHT22;7442;50.840;3.396;2022-08-02T10:05:57;28.70;48.60
14705;DHT22;7442;50.840;3.396;2022-08-02T10:08:45;28.70;48.10
14705;DHT22;7442;50.840;3.396;2022-08-02T10:11:31;28.70;48.60
14705;DHT22;7442;50.840;3.396;2022-08-02T10:14:19;28.80;47.70
14705;DHT22;7442;50.840;3.396;2022-08-02T10:17:07;28.70;47.90
14705;DHT22;7442;50.840;3.396;2022-08-02T10:19:54;28.70;47.90
14705;DHT22;7442;50.840;3.396;2022-08-02T10:22:42;28.70;47.80
14705;DHT22;7442;50.840;3.396;2022-08-02T10:25:29;28.70;47.70
14705;DHT22;7442;50.840;3.396;2022-08-02T10:28:19;28.70;47.70
14705;DHT22;7442;50.840;3.396;2022-08-02T10:31:06;28.70;47.60
14705;DHT22;7442;50.840;3.396;2022-08-02T10:33:57;28.80;47.60
14705;DHT22;7442;50.840;3.396;2022-08-02T10:36:45;28.90;48.10
14705;DHT22;7442;50.840;3.396;2022-08-02T10:39:41;28.90;47.30
14705;DHT22;7442;50.840;3.396;2022-08-02T10:42:43;29.00;47.10
14705;DHT22;7442;50.840;3.396;2022-08-02T10:45:31;29.00;47.40
14705;DHT22;7442;50.840;3.396;2022-08-02T10:48:20;29.00;47.20
14705;DHT22;7442;50.840;3.396;2022-08-02T10:51:07;29.00;47.50
14705;DHT22;7442;50.840;3.396;2022-08-02T10:54:08;28.90;47.50
14705;DHT22;7442;50.840;3.396;2022-08-02T10:56:56;29.00;47.40
14705;DHT22;7442;50.840;3.396;2022-08-02T10:59:43;29.00;47.60
14705;DHT22;7442;50.840;3.396;2022-08-02T11:02:44;28.90;47.70
14705;DHT22;7442;50.840;3.396;2022-08-02T11:05:34;29.00;47.80
14705;DHT22;7442;50.840;3.396;2022-08-02T11:08:21;28.90;48.50
14705;DHT22;7442;50.840;3.396;2022-08-02T11:14:00;29.00;47.80
14705;DHT22;7442;50.840;3.396;2022-08-02T11:23:32;29.00;48.00
14705;DHT22;7442;50.840;3.396;2022-08-02T11:25:49;29.10;48.00
14705;DHT22;7442;50.840;3.396;2022-08-02T11:28:36;29.00;48.00
14705;DHT22;7442;50.840;3.396;2022-08-02T11:31:25;29.00;48.20
14705;DHT22;7442;50.840;3.396;2022-08-02T11:34:12;29.00;48.10
14705;DHT22;7442;50.840;3.396;2022-08-02T11:36:59;29.10;48.20
14705;DHT22;7442;50.840;3.396;2022-08-02T11:39:50;29.20;48.10
14705;DHT22;7442;50.840;3.396;2022-08-02T11:42:39;29.10;48.30
14705;DHT22;7442;50.840;3.396;2022-08-02T11:45:26;29.10;48.40
14705;DHT22;7442;50.840;3.396;2022-08-02T11:48:12;29.10;48.50
14705;DHT22;7442;50.840;3.396;2022-08-02T11:51:08;29.20;48.30
14705;DHT22;7442;50.840;3.396;2022-08-02T11:53:54;29.20;48.40
14705;DHT22;7442;50.840;3.396;2022-08-02T11:56:43;29.20;48.50
14705;DHT22;7442;50.840;3.396;2022-08-02T11:59:29;29.20;48.50
14705;DHT22;7442;50.840;3.396;2022-08-02T12:02:17;29.20;48.60
14705;DHT22;7442;50.840;3.396;2022-08-02T12:05:06;29.20;48.90
14705;DHT22;7442;50.840;3.396;2022-08-02T12:07:52;29.20;48.70
14705;DHT22;7442;50.840;3.396;2022-08-02T12:10:47;29.20;48.70
14705;DHT22;7442;50.840;3.396;2022-08-02T12:13:44;29.10;48.80
14705;DHT22;7442;50.840;3.396;2022-08-02T12:16:36;29.20;48.90
14705;DHT22;7442;50.840;3.396;2022-08-02T12:19:42;29.20;48.80
14705;DHT22;7442;50.840;3.396;2022-08-02T12:22:29;29.30;48.60
14705;DHT22;7442;50.840;3.396;2022-08-02T12:25:17;29.30;48.50
14705;DHT22;7442;50.840;3.396;2022-08-02T12:28:22;29.40;48.40
14705;DHT22;7442;50.840;3.396;2022-08-02T12:31:03;29.40;48.50
14705;DHT22;7442;50.840;3.396;2022-08-02T12:33:52;29.40;48.60
14705;DHT22;7442;50.840;3.396;2022-08-02T12:36:39;29.40;48.50
14705;DHT22;7442;50.840;3.396;2022-08-02T12:39:45;29.40;48.50
14705;DHT22;7442;50.840;3.396;2022-08-02T12:42:27;29.40;48.70
14705;DHT22;7442;50.840;3.396;2022-08-02T12:45:14;29.50;48.50
14705;DHT22;7442;50.840;3.396;2022-08-02T12:48:01;29.60;48.40
14705;DHT22;7442;50.840;3.396;2022-08-02T12:50:54;29.50;48.50
14705;DHT22;7442;50.840;3.396;2022-08-02T12:53:41;29.60;48.50
14705;DHT22;7442;50.840;3.396;2022-08-02T12:56:32;29.50;48.40
14705;DHT22;7442;50.840;3.396;2022-08-02T12:59:34;29.60;48.40
14705;DHT22;7442;50.840;3.396;2022-08-02T13:02:21;29.60;48.60
14705;DHT22;7442;50.840;3.396;2022-08-02T13:05:07;29.50;48.50
14705;DHT22;7442;50.840;3.396;2022-08-02T13:07:58;29.60;48.60
14705;DHT22;7442;50.840;3.396;2022-08-02T13:10:45;29.60;48.80
14705;DHT22;7442;50.840;3.396;2022-08-02T13:13:31;29.50;49.00
14705;DHT22;7442;50.840;3.396;2022-08-02T13:16:17;29.60;48.90
14705;DHT22;7442;50.840;3.396;2022-08-02T13:19:04;29.60;48.80
14705;DHT22;7442;50.840;3.396;2022-08-02T13:21:50;29.70;48.80
14705;DHT22;7442;50.840;3.396;2022-08-02T13:24:37;29.70;49.00
14705;DHT22;7442;50.840;3.396;2022-08-02T13:27:25;29.60;49.00
14705;DHT22;7442;50.840;3.396;2022-08-02T13:30:12;29.70;48.90
14705;DHT22;7442;50.840;3.396;2022-08-02T13:32:58;29.70;48.80
14705;DHT22;7442;50.840;3.396;2022-08-02T13:35:45;29.70;48.90
14705;DHT22;7442;50.840;3.396;2022-08-02T13:38:32;29.70;49.00
14705;DHT22;7442;50.840;3.396;2022-08-02T13:41:18;29.80;49.00
14705;DHT22;7442;50.840;3.396;2022-08-02T13:44:05;29.80;49.20
14705;DHT22;7442;50.840;3.396;2022-08-02T13:46:51;29.80;49.00
14705;DHT22;7442;50.840;3.396;2022-08-02T13:49:38;29.80;49.00
14705;DHT22;7442;50.840;3.396;2022-08-02T13:52:25;29.80;49.00
14705;DHT22;7442;50.840;3.396;2022-08-02T13:55:12;29.80;49.00
14705;DHT22;7442;50.840;3.396;2022-08-02T13:57:58;29.80;48.90
14705;DHT22;7442;50.840;3.396;2022-08-02T14:00:44;29.90;49.00
14705;DHT22;7442;50.840;3.396;2022-08-02T14:03:31;29.90;49.00
14705;DHT22;7442;50.840;3.396;2022-08-02T14:06:17;29.90;48.80
14705;DHT22;7442;50.840;3.396;2022-08-02T14:09:04;29.90;49.10
14705;DHT22;7442;50.840;3.396;2022-08-02T14:11:50;29.90;49.00
14705;DHT22;7442;50.840;3.396;2022-08-02T14:14:37;30.00;48.90
14705;DHT22;7442;50.840;3.396;2022-08-02T14:17:23;30.00;48.80
14705;DHT22;7442;50.840;3.396;2022-08-02T14:20:11;30.10;48.70
14705;DHT22;7442;50.840;3.396;2022-08-02T14:22:57;30.20;48.50
14705;DHT22;7442;50.840;3.396;2022-08-02T14:25:44;30.10;48.60
14705;DHT22;7442;50.840;3.396;2022-08-02T14:28:30;30.10;48.70
14705;DHT22;7442;50.840;3.396;2022-08-02T14:31:17;30.10;48.70
14705;DHT22;7442;50.840;3.396;2022-08-02T14:34:04;30.10;48.70
14705;DHT22;7442;50.840;3.396;2022-08-02T14:36:50;30.10;49.20
14705;DHT22;7442;50.840;3.396;2022-08-02T14:39:36;30.00;48.70
14705;DHT22;7442;50.840;3.396;2022-08-02T14:42:23;30.10;48.70
14705;DHT22;7442;50.840;3.396;2022-08-02T14:45:09;30.10;48.60
14705;DHT22;7442;50.840;3.396;2022-08-02T14:47:56;30.20;48.60
14705;DHT22;7442;50.840;3.396;2022-08-02T14:50:43;30.10;48.80
14705;DHT22;7442;50.840;3.396;2022-08-02T14:53:30;30.20;49.30
14705;DHT22;7442;50.840;3.396;2022-08-02T14:56:16;30.20;48.60
14705;DHT22;7442;50.840;3.396;2022-08-02T14:59:09;30.20;48.50
14705;DHT22;7442;50.840;3.396;2022-08-02T15:01:57;30.10;48.60
14705;DHT22;7442;50.840;3.396;2022-08-02T15:04:44;30.10;48.60
14705;DHT22;7442;50.840;3.396;2022-08-02T15:07:30;30.20;48.30
14705;DHT22;7442;50.840;3.396;2022-08-02T15:10:17;30.30;48.20
14705;DHT22;7442;50.840;3.396;2022-08-02T15:13:03;30.20;48.10
14705;DHT22;7442;50.840;3.396;2022-08-02T15:15:50;30.20;48.20
14705;DHT22;7442;50.840;3.396;2022-08-02T15:18:36;30.10;48.60
14705;DHT22;7442;50.840;3.396;2022-08-02T15:21:23;30.10;48.60
14705;DHT22;7442;50.840;3.396;2022-08-02T15:24:09;30.10;48.70
14705;DHT22;7442;50.840;3.396;2022-08-02T15:26:56;30.20;48.40
14705;DHT22;7442;50.840;3.396;2022-08-02T15:29:44;30.10;48.70
14705;DHT22;7442;50.840;3.396;2022-08-02T15:32:31;30.20;48.50
14705;DHT22;7442;50.840;3.396;2022-08-02T15:35:17;30.20;48.70
14705;DHT22;7442;50.840;3.396;2022-08-02T15:38:03;30.20;48.50
14705;DHT22;7442;50.840;3.396;2022-08-02T15:40:50;30.30;48.20
14705;DHT22;7442;50.840;3.396;2022-08-02T15:43:37;30.50;48.10
14705;DHT22;7442;50.840;3.396;2022-08-02T15:46:24;30.40;48.20
14705;DHT22;7442;50.840;3.396;2022-08-02T15:49:10;30.40;48.10
14705;DHT22;7442;50.840;3.396;2022-08-02T15:51:57;30.40;48.20
14705;DHT22;7442;50.840;3.396;2022-08-02T15:54:44;30.40;48.10
14705;DHT22;7442;50.840;3.396;2022-08-02T15:57:30;30.30;48.20
14705;DHT22;7442;50.840;3.396;2022-08-02T16:00:16;30.30;48.10
14705;DHT22;7442;50.840;3.396;2022-08-02T16:03:03;30.30;48.30
14705;DHT22;7442;50.840;3.396;2022-08-02T16:05:49;30.40;48.20
14705;DHT22;7442;50.840;3.396;2022-08-02T16:08:36;30.30;48.20
14705;DHT22;7442;50.840;3.396;2022-08-02T16:11:22;30.30;48.90
14705;DHT22;7442;50.840;3.396;2022-08-02T16:14:08;30.40;48.10
14705;DHT22;7442;50.840;3.396;2022-08-02T16:16:55;30.50;48.10
14705;DHT22;7442;50.840;3.396;2022-08-02T16:19:41;30.40;48.20
14705;DHT22;7442;50.840;3.396;2022-08-02T16:22:28;30.40;48.20
14705;DHT22;7442;50.840;3.396;2022-08-02T16:25:14;30.40;48.20
14705;DHT22;7442;50.840;3.396;2022-08-02T16:28:03;30.30;48.40
14705;DHT22;7442;50.840;3.396;2022-08-02T16:30:49;30.30;48.50
14705;DHT22;7442;50.840;3.396;2022-08-02T16:33:35;30.40;48.50
14705;DHT22;7442;50.840;3.396;2022-08-02T16:36:22;30.30;48.40
14705;DHT22;7442;50.840;3.396;2022-08-02T16:39:09;30.30;48.60
14705;DHT22;7442;50.840;3.396;2022-08-02T16:41:56;30.30;48.40
14705;DHT22;7442;50.840;3.396;2022-08-02T16:44:42;30.30;48.40
14705;DHT22;7442;50.840;3.396;2022-08-02T16:47:28;30.30;48.30
14705;DHT22;7442;50.840;3.396;2022-08-02T16:50:15;30.40;48.20
14705;DHT22;7442;50.840;3.396;2022-08-02T16:53:02;30.40;48.20
14705;DHT22;7442;50.840;3.396;2022-08-02T16:55:48;30.40;48.10
14705;DHT22;7442;50.840;3.396;2022-08-02T16:58:37;30.40;48.10
14705;DHT22;7442;50.840;3.396;2022-08-02T17:01:23;30.40;48.00
14705;DHT22;7442;50.840;3.396;2022-08-02T17:04:10;30.50;47.90
14705;DHT22;7442;50.840;3.396;2022-08-02T17:06:56;30.50;47.90
14705;DHT22;7442;50.840;3.396;2022-08-02T17:09:42;30.30;48.20
14705;DHT22;7442;50.840;3.396;2022-08-02T17:12:29;30.30;48.20
14705;DHT22;7442;50.840;3.396;2022-08-02T17:15:15;30.30;48.60
14705;DHT22;7442;50.840;3.396;2022-08-02T17:18:03;30.40;48.10
14705;DHT22;7442;50.840;3.396;2022-08-02T17:20:49;30.50;47.90
14705;DHT22;7442;50.840;3.396;2022-08-02T17:23:35;30.50;47.90
14705;DHT22;7442;50.840;3.396;2022-08-02T17:26:21;30.50;47.90
14705;DHT22;7442;50.840;3.396;2022-08-02T17:29:08;30.50;47.80
14705;DHT22;7442;50.840;3.396;2022-08-02T17:31:54;30.40;48.00
14705;DHT22;7442;50.840;3.396;2022-08-02T17:34:41;30.30;48.00
14705;DHT22;7442;50.840;3.396;2022-08-02T17:37:27;30.40;48.00
14705;DHT22;7442;50.840;3.396;2022-08-02T17:40:13;30.30;48.00
14705;DHT22;7442;50.840;3.396;2022-08-02T17:42:59;30.40;48.00
14705;DHT22;7442;50.840;3.396;2022-08-02T17:45:46;30.40;47.90
14705;DHT22;7442;50.840;3.396;2022-08-02T17:48:33;30.30;48.50
14705;DHT22;7442;50.840;3.396;2022-08-02T17:51:38;30.30;48.00
14705;DHT22;7442;50.840;3.396;2022-08-02T17:54:25;30.30;48.00
14705;DHT22;7442;50.840;3.396;2022-08-02T17:57:11;30.30;47.80
14705;DHT22;7442;50.840;3.396;2022-08-02T17:59:59;30.30;47.80
14705;DHT22;7442;50.840;3.396;2022-08-02T18:02:51;30.30;47.80
14705;DHT22;7442;50.840;3.396;2022-08-02T18:05:38;30.40;47.70
14705;DHT22;7442;50.840;3.396;2022-08-02T18:08:24;30.40;47.50
14705;DHT22;7442;50.840;3.396;2022-08-02T18:11:10;30.40;47.60
14705;DHT22;7442;50.840;3.396;2022-08-02T18:13:57;30.40;47.60
14705;DHT22;7442;50.840;3.396;2022-08-02T18:16:46;30.30;47.70
14705;DHT22;7442;50.840;3.396;2022-08-02T18:19:39;30.30;47.80
14705;DHT22;7442;50.840;3.396;2022-08-02T18:22:26;30.30;47.80
14705;DHT22;7442;50.840;3.396;2022-08-02T18:25:12;30.30;47.90
14705;DHT22;7442;50.840;3.396;2022-08-02T18:28:05;30.30;47.60